Time;durP1;ratioP1;P1;durP2;ratioP2;P2;SDS_P1;SDS_P2;PMS_P1;PMS_P2;Temp;Humidity;BMP_temperature;BMP_pressure;BME280_temperature;BME280_humidity;BME280_pressure;Samples;Min_cycle;Max_cycle;Signal;HPM_P1;HPM_P2
2021/05/07 00:02:25;;;;;;;1.00;0.80;;;9.60;57.50;;;;;;5051400;28;37533;-88
2021/05/07 00:08:12;;;;;;;0.80;0.70;;;9.60;57.40;;;;;;5049627;28;40194;-89
2021/05/07 00:10:43;;;;;;;1.40;0.90;;;9.70;57.30;;;;;;5054186;28;38446;-86
2021/05/07 00:13:12;;;;;;;2.43;1.63;;;9.60;57.20;;;;;;5053592;28;38449;-87
2021/05/07 00:15:39;;;;;;;2.23;1.10;;;9.70;57.50;;;;;;5043070;28;40270;-87
2021/05/07 00:18:14;;;;;;;0.80;0.60;;;9.70;57.20;;;;;;5028414;28;38804;-87
2021/05/07 00:20:41;;;;;;;0.80;0.60;;;9.70;57.10;;;;;;5054524;28;36899;-88
2021/05/07 00:23:08;;;;;;;2.70;0.90;;;9.50;57.00;;;;;;5036754;28;38226;-87
2021/05/07 00:25:36;;;;;;;1.07;0.70;;;9.50;57.10;;;;;;5036799;28;40143;-87
2021/05/07 00:28:06;;;;;;;0.73;0.50;;;9.50;57.00;;;;;;5037088;28;39195;-86
2021/05/07 00:30:34;;;;;;;1.00;0.80;;;9.50;57.10;;;;;;5059738;28;37115;-88
2021/05/07 00:33:02;;;;;;;0.70;0.50;;;9.60;57.30;;;;;;5050529;28;36073;-87
2021/05/07 00:35:29;;;;;;;0.70;0.60;;;9.60;57.20;;;;;;5041818;28;38409;-87
2021/05/07 00:37:57;;;;;;;0.80;0.60;;;9.60;57.00;;;;;;5034539;28;38707;-87
2021/05/07 00:40:30;;;;;;;1.90;0.80;;;9.60;57.00;;;;;;5044853;28;37175;-88
2021/05/07 00:43:01;;;;;;;0.90;0.70;;;9.60;57.00;;;;;;5055163;28;38549;-87
2021/05/07 00:45:31;;;;;;;0.93;0.60;;;9.60;56.80;;;;;;5059605;28;39135;-88
2021/05/07 00:48:06;;;;;;;0.90;0.70;;;9.60;56.90;;;;;;5061651;28;39061;-88
2021/05/07 00:50:37;;;;;;;1.60;1.23;;;9.60;56.90;;;;;;5065285;28;36311;-86
2021/05/07 00:53:05;;;;;;;1.43;1.07;;;9.60;56.90;;;;;;5060929;28;36657;-87
2021/05/07 00:55:38;;;;;;;1.83;0.87;;;9.70;57.00;;;;;;5066950;28;40924;-87
2021/05/07 00:58:09;;;;;;;1.20;0.90;;;9.70;57.10;;;;;;5078302;28;37767;-86
2021/05/07 01:00:40;;;;;;;1.00;0.90;;;9.70;57.30;;;;;;5063591;28;37370;-87
2021/05/07 01:03:09;;;;;;;0.80;0.70;;;9.70;57.30;;;;;;5079252;28;37136;-86
2021/05/07 01:05:36;;;;;;;0.93;0.80;;;9.70;57.30;;;;;;5079985;28;39599;-86
2021/05/07 01:08:07;;;;;;;1.40;1.30;;;9.70;57.60;;;;;;5064781;28;39634;-86
2021/05/07 01:10:37;;;;;;;1.67;1.40;;;9.70;58.00;;;;;;5062665;28;38321;-85
2021/05/07 01:13:07;;;;;;;3.20;1.00;;;9.70;58.30;;;;;;5063730;28;37036;-86
2021/05/07 01:15:34;;;;;;;1.00;0.83;;;9.70;58.80;;;;;;5080203;28;39403;-88
2021/05/07 01:18:02;;;;;;;1.50;1.20;;;9.70;58.80;;;;;;5059650;28;37568;-87
2021/05/07 01:20:33;;;;;;;1.10;1.00;;;9.70;59.00;;;;;;5083463;28;38280;-87
2021/05/07 01:23:05;;;;;;;0.90;0.80;;;9.60;59.40;;;;;;5059749;28;36859;-87
2021/05/07 01:25:37;;;;;;;1.17;0.80;;;9.60;60.00;;;;;;5061371;28;40261;-87
2021/05/07 01:28:06;;;;;;;1.00;0.70;;;9.60;60.20;;;;;;5062924;28;39958;-87
2021/05/07 01:30:35;;;;;;;1.47;0.83;;;9.50;60.70;;;;;;5081435;28;39003;-86
2021/05/07 01:33:03;;;;;;;1.00;0.80;;;9.50;61.10;;;;;;5051099;28;35844;-87
2021/05/07 01:35:33;;;;;;;1.10;1.00;;;9.50;61.70;;;;;;5062766;28;39777;-87
2021/05/07 01:38:03;;;;;;;1.30;1.20;;;9.40;61.90;;;;;;5060899;28;37792;-88
2021/05/07 01:40:33;;;;;;;1.83;1.13;;;9.40;62.10;;;;;;5062155;28;40588;-86
2021/05/07 01:43:00;;;;;;;1.03;0.93;;;9.30;63.00;;;;;;5079941;28;37957;-87
2021/05/07 01:45:30;;;;;;;1.20;1.10;;;9.30;62.80;;;;;;5060380;28;39268;-88
2021/05/07 01:47:59;;;;;;;1.30;1.10;;;9.30;62.90;;;;;;5062619;28;39528;-87
2021/05/07 01:50:29;;;;;;;1.10;1.00;;;9.20;62.90;;;;;;5059732;28;38698;-86
2021/05/07 01:53:03;;;;;;;1.60;0.93;;;9.20;63.20;;;;;;5058908;28;37704;-87
2021/05/07 01:55:32;;;;;;;1.00;0.80;;;9.20;63.30;;;;;;5077695;28;40197;-87
2021/05/07 01:58:01;;;;;;;1.10;1.00;;;9.20;63.60;;;;;;5073077;28;37688;-86
2021/05/07 02:00:29;;;;;;;1.00;0.90;;;9.20;63.70;;;;;;5058030;28;37967;-86
2021/05/07 02:03:03;;;;;;;0.80;0.70;;;9.20;63.80;;;;;;5054663;28;35239;-86
2021/05/07 02:05:36;;;;;;;1.00;0.90;;;9.20;63.30;;;;;;5058127;28;38628;-87
2021/05/07 02:08:07;;;;;;;1.00;0.90;;;9.10;63.00;;;;;;5073169;28;39296;-86
2021/05/07 02:10:35;;;;;;;1.00;0.90;;;9.10;63.20;;;;;;5043517;28;36520;-86
2021/05/07 02:13:05;;;;;;;1.43;1.00;;;9.10;63.40;;;;;;5055613;28;37514;-86
2021/05/07 02:15:34;;;;;;;1.17;0.80;;;9.10;63.30;;;;;;5055920;28;39374;-86
2021/05/07 02:18:01;;;;;;;1.43;1.33;;;9.10;63.30;;;;;;5051796;28;39433;-86
2021/05/07 02:20:30;;;;;;;0.80;0.80;;;9.10;63.40;;;;;;5069815;28;37779;-86
2021/05/07 02:22:58;;;;;;;1.77;0.90;;;9.00;63.60;;;;;;5073286;28;37535;-87
2021/05/07 02:25:27;;;;;;;1.10;1.00;;;9.10;64.00;;;;;;5052738;28;38718;-87
2021/05/07 02:27:57;;;;;;;1.20;1.10;;;9.00;63.90;;;;;;5054247;28;38917;-86
2021/05/07 02:30:29;;;;;;;1.30;1.20;;;9.10;64.20;;;;;;5055851;28;36639;-87
2021/05/07 02:32:56;;;;;;;1.50;1.40;;;9.10;64.30;;;;;;5050739;28;36974;-87
2021/05/07 02:35:25;;;;;;;1.50;1.40;;;9.10;64.40;;;;;;5048297;28;39273;-87
2021/05/07 02:37:53;;;;;;;2.13;1.93;;;9.10;64.20;;;;;;5046571;28;37814;-87
2021/05/07 02:40:20;;;;;;;2.57;1.43;;;9.00;64.20;;;;;;5071292;28;37365;-86
2021/05/07 02:42:48;;;;;;;1.10;1.00;;;9.00;64.10;;;;;;5048134;28;36460;-86
2021/05/07 02:45:18;;;;;;;2.20;1.20;;;9.00;63.50;;;;;;5056726;28;40140;-87
2021/05/07 02:47:45;;;;;;;1.00;0.90;;;8.90;63.50;;;;;;5067129;28;38590;-86
2021/05/07 02:50:13;;;;;;;1.10;1.00;;;8.90;63.30;;;;;;5044629;28;38269;-86
2021/05/07 02:52:44;;;;;;;1.00;0.80;;;8.80;62.60;;;;;;5037924;28;37262;-87
2021/05/07 02:55:12;;;;;;;1.87;0.80;;;8.80;62.90;;;;;;5031342;28;39496;-86
2021/05/07 02:57:39;;;;;;;1.60;1.10;;;8.70;63.10;;;;;;5030147;28;38723;-87
2021/05/07 03:00:12;;;;;;;1.20;1.10;;;8.70;63.10;;;;;;5032436;28;37130;-87
2021/05/07 03:02:40;;;;;;;1.73;1.10;;;8.70;63.20;;;;;;5049184;28;38442;-86
2021/05/07 03:05:08;;;;;;;0.80;0.77;;;8.70;63.40;;;;;;5031930;28;38640;-87
2021/05/07 03:07:35;;;;;;;1.10;1.00;;;8.60;63.80;;;;;;5048842;28;38630;-86
2021/05/07 03:10:03;;;;;;;1.10;1.00;;;8.60;63.80;;;;;;5051232;28;37493;-86
2021/05/07 03:12:30;;;;;;;1.30;1.10;;;8.50;63.40;;;;;;5020685;28;36578;-86
2021/05/07 03:14:57;;;;;;;1.00;0.90;;;8.50;63.70;;;;;;5043816;28;39043;-86
2021/05/07 03:17:25;;;;;;;1.20;1.00;;;8.40;64.00;;;;;;5032123;28;38930;-87
2021/05/07 03:19:52;;;;;;;1.83;1.10;;;8.40;64.20;;;;;;5051711;28;38356;-86
2021/05/07 03:22:19;;;;;;;2.33;1.60;;;8.40;64.50;;;;;;5031690;28;36068;-87
2021/05/07 03:24:47;;;;;;;1.20;1.10;;;8.30;64.50;;;;;;5033532;28;40828;-87
2021/05/07 03:27:14;;;;;;;1.77;1.30;;;8.30;64.90;;;;;;5031333;28;39318;-85
2021/05/07 03:29:41;;;;;;;1.93;1.10;;;8.30;65.00;;;;;;5052418;28;37112;-87
2021/05/07 03:32:08;;;;;;;1.30;1.20;;;8.30;65.10;;;;;;5050488;28;38213;-88
2021/05/07 03:34:37;;;;;;;1.50;1.10;;;8.30;64.80;;;;;;5033951;28;38712;-85
2021/05/07 03:37:04;;;;;;;1.90;1.67;;;8.30;65.10;;;;;;5033430;28;42366;-86
2021/05/07 03:39:31;;;;;;;1.73;1.23;;;8.30;65.40;;;;;;5051361;28;38777;-87
2021/05/07 03:41:58;;;;;;;1.60;1.27;;;8.30;65.70;;;;;;5043685;28;35790;-87
2021/05/07 03:44:25;;;;;;;2.53;2.30;;;8.30;65.70;;;;;;5032217;28;38495;-86
2021/05/07 03:46:52;;;;;;;2.50;2.30;;;8.30;65.70;;;;;;5051906;28;39587;-87
2021/05/07 03:49:19;;;;;;;3.10;2.83;;;8.40;65.80;;;;;;5060314;28;38525;-86
2021/05/07 03:51:47;;;;;;;2.10;1.90;;;8.30;65.70;;;;;;5071262;28;38140;-87
2021/05/07 03:54:15;;;;;;;1.60;1.43;;;8.30;65.70;;;;;;5055060;28;39892;-86
2021/05/07 03:56:42;;;;;;;2.37;1.50;;;8.20;65.70;;;;;;5054609;28;37748;-86
2021/05/07 03:59:09;;;;;;;2.10;1.67;;;8.30;65.90;;;;;;5044124;28;37608;-86
2021/05/07 04:01:37;;;;;;;1.57;1.37;;;8.30;66.10;;;;;;5053772;28;40265;-86
2021/05/07 04:04:06;;;;;;;2.10;1.90;;;8.30;65.70;;;;;;5068341;28;40388;-86
2021/05/07 04:06:33;;;;;;;2.50;1.57;;;8.30;65.70;;;;;;5066657;28;38486;-86
2021/05/07 04:09:06;;;;;;;1.90;1.40;;;8.30;65.70;;;;;;5050511;28;36461;-87
2021/05/07 04:11:40;;;;;;;1.20;1.10;;;8.30;65.80;;;;;;5069380;28;37282;-86
2021/05/07 04:14:07;;;;;;;1.83;1.20;;;8.30;65.70;;;;;;5063561;28;40880;-87
2021/05/07 04:16:36;;;;;;;1.67;1.33;;;8.20;65.90;;;;;;5072344;28;20573;-87
2021/05/07 04:19:03;;;;;;;2.30;1.57;;;8.30;66.30;;;;;;5068467;28;37957;-87
2021/05/07 04:21:31;;;;;;;1.50;1.40;;;8.20;66.20;;;;;;5071259;28;38137;-85
2021/05/07 04:24:01;;;;;;;2.70;1.70;;;8.10;65.50;;;;;;5053630;28;40881;-87
2021/05/07 04:26:28;;;;;;;1.40;1.30;;;8.10;65.90;;;;;;5053264;28;39573;-87
2021/05/07 04:28:55;;;;;;;2.73;1.57;;;8.10;65.80;;;;;;5069093;28;37600;-87
2021/05/07 04:31:22;;;;;;;2.87;1.50;;;8.00;65.80;;;;;;5053408;28;36662;-86
2021/05/07 04:33:50;;;;;;;2.77;1.87;;;8.00;66.10;;;;;;5044432;28;39746;-85
2021/05/07 04:36:17;;;;;;;2.53;2.00;;;8.00;66.30;;;;;;5052585;28;39903;-85
2021/05/07 04:38:44;;;;;;;2.37;1.60;;;8.00;66.20;;;;;;5066753;28;37614;-87
2021/05/07 04:41:13;;;;;;;3.77;1.70;;;8.00;66.00;;;;;;5054099;28;35846;-86
2021/05/07 04:43:39;;;;;;;5.87;2.03;;;7.90;66.20;;;;;;5065386;28;39931;-87
2021/05/07 04:46:07;;;;;;;2.30;2.10;;;7.90;66.50;;;;;;5069235;28;39236;-86
2021/05/07 04:48:34;;;;;;;4.23;2.57;;;7.90;66.50;;;;;;5050316;28;36606;-86
2021/05/07 04:51:01;;;;;;;1.90;1.70;;;7.80;66.20;;;;;;5052570;28;37465;-86
2021/05/07 04:53:28;;;;;;;2.80;1.70;;;7.80;66.60;;;;;;5052755;28;38287;-86
2021/05/07 04:55:55;;;;;;;1.90;1.80;;;7.80;66.90;;;;;;5052783;28;37605;-86
2021/05/07 04:58:23;;;;;;;3.00;1.60;;;7.80;66.90;;;;;;5053108;28;36262;-86
2021/05/07 05:00:50;;;;;;;2.10;2.00;;;7.80;66.80;;;;;;5069942;28;38380;-86
2021/05/07 05:03:20;;;;;;;2.03;1.70;;;7.80;67.20;;;;;;5073219;28;40554;-85
2021/05/07 05:05:53;;;;;;;2.83;2.20;;;7.70;67.10;;;;;;5053353;28;40359;-86
2021/05/07 05:08:38;;;;;;;2.30;2.10;;;7.70;67.30;;;;;;5067070;28;37619;-88
2021/05/07 05:11:05;;;;;;;2.23;2.03;;;7.70;67.20;;;;;;5070214;28;35916;-88
2021/05/07 05:13:34;;;;;;;1.80;1.20;;;7.70;67.20;;;;;;5052466;28;39848;-88
2021/05/07 05:16:01;;;;;;;1.83;1.10;;;7.60;66.90;;;;;;5062060;28;42562;-88
2021/05/07 05:18:30;;;;;;;1.17;0.83;;;7.60;67.00;;;;;;5058179;28;37402;-87
2021/05/07 05:20:59;;;;;;;1.60;1.20;;;7.50;67.20;;;;;;5075447;28;37503;-87
2021/05/07 05:23:27;;;;;;;1.57;0.90;;;7.50;67.40;;;;;;5072969;28;40790;-87
2021/05/07 05:25:55;;;;;;;4.73;1.10;;;7.50;67.40;;;;;;5072451;28;39030;-87
2021/05/07 05:28:24;;;;;;;2.33;1.20;;;7.50;67.20;;;;;;5053962;28;37214;-87
2021/05/07 05:30:52;;;;;;;1.20;1.07;;;7.50;67.40;;;;;;5056758;28;38922;-87
2021/05/07 05:33:20;;;;;;;1.10;1.00;;;7.50;67.60;;;;;;5078190;28;40891;-87
2021/05/07 05:35:48;;;;;;;1.10;1.00;;;7.50;67.80;;;;;;5058242;28;42010;-88
2021/05/07 05:38:16;;;;;;;1.97;1.30;;;7.50;67.90;;;;;;5058933;28;38736;-87
2021/05/07 05:40:43;;;;;;;2.67;1.40;;;7.60;67.70;;;;;;5058831;28;35963;-87
2021/05/07 05:43:10;;;;;;;3.73;2.30;;;7.60;67.60;;;;;;5060288;28;39731;-89
2021/05/07 05:45:37;;;;;;;5.60;3.00;;;7.60;67.60;;;;;;5080729;28;39516;-88
2021/05/07 05:48:09;;;;;;;3.37;2.10;;;7.60;67.70;;;;;;5065860;28;36373;-89
2021/05/07 05:50:37;;;;;;;2.17;1.30;;;7.60;67.80;;;;;;5074899;28;35944;-89
2021/05/07 05:53:05;;;;;;;1.40;1.10;;;7.70;68.10;;;;;;5057399;28;42010;-91
2021/05/07 05:55:32;;;;;;;1.20;1.10;;;7.70;67.60;;;;;;5064423;28;38281;-87
2021/05/07 05:57:59;;;;;;;3.97;1.97;;;7.60;67.20;;;;;;5063091;28;36734;-86
2021/05/07 06:00:27;;;;;;;1.70;1.50;;;7.60;67.40;;;;;;5082143;28;37506;-86
2021/05/07 06:02:54;;;;;;;1.40;1.17;;;7.60;66.90;;;;;;5083727;28;40572;-86
2021/05/07 06:05:22;;;;;;;2.40;1.00;;;7.60;66.90;;;;;;5056069;28;38480;-88
2021/05/07 06:07:51;;;;;;;2.17;1.80;;;7.60;67.30;;;;;;5057064;28;37891;-89
2021/05/07 06:10:19;;;;;;;1.40;1.20;;;7.60;67.40;;;;;;5064715;28;38270;-88
2021/05/07 06:12:47;;;;;;;1.70;1.30;;;7.60;67.00;;;;;;5062699;28;39171;-89
2021/05/07 06:15:17;;;;;;;2.40;1.90;;;7.50;66.90;;;;;;5059298;28;39856;-89
2021/05/07 06:17:45;;;;;;;2.53;1.50;;;7.60;66.80;;;;;;5058448;28;37802;-89
2021/05/07 06:20:15;;;;;;;2.33;1.47;;;7.60;67.30;;;;;;5074261;28;38150;-88
2021/05/07 06:22:44;;;;;;;2.87;1.40;;;7.70;67.60;;;;;;5059106;28;41932;-89
2021/05/07 06:25:13;;;;;;;1.87;1.77;;;7.80;67.20;;;;;;5069008;28;39290;-90
2021/05/07 06:27:41;;;;;;;1.97;1.80;;;7.80;67.00;;;;;;5059571;28;36762;-89
2021/05/07 06:30:16;;;;;;;2.70;2.13;;;7.90;66.60;;;;;;5060999;28;36473;-90
2021/05/07 06:32:43;;;;;;;4.20;2.20;;;8.10;67.30;;;;;;5069705;28;40828;-89
2021/05/07 06:35:12;;;;;;;4.37;3.20;;;8.20;67.30;;;;;;5071621;28;39956;-90
2021/05/07 06:37:40;;;;;;;3.40;2.50;;;8.30;67.10;;;;;;5051528;28;37605;-89
2021/05/07 06:40:12;;;;;;;3.60;2.87;;;8.30;66.10;;;;;;5057307;28;36226;-89
2021/05/07 06:42:40;;;;;;;2.97;1.80;;;8.40;66.40;;;;;;5073854;28;39152;-89
2021/05/07 06:45:09;;;;;;;5.87;1.60;;;8.50;65.30;;;;;;5053283;28;39381;-89
2021/05/07 06:47:39;;;;;;;1.83;1.50;;;8.60;64.80;;;;;;5070510;28;38294;-89
2021/05/07 06:50:07;;;;;;;1.83;1.50;;;8.70;64.30;;;;;;5053714;28;36227;-88
2021/05/07 06:52:35;;;;;;;1.60;1.27;;;8.80;64.10;;;;;;5059476;28;38573;-89
2021/05/07 06:55:03;;;;;;;2.30;1.10;;;8.90;63.90;;;;;;5057590;28;40446;-88
2021/05/07 06:57:33;;;;;;;5.47;1.33;;;9.00;63.70;;;;;;5052466;28;39086;-88
2021/05/07 07:00:01;;;;;;;1.93;1.30;;;9.20;64.10;;;;;;5071311;28;38765;-89
2021/05/07 07:02:32;;;;;;;3.37;1.40;;;9.40;62.90;;;;;;5069334;28;40886;-87
2021/05/07 07:05:00;;;;;;;1.83;1.10;;;9.60;62.30;;;;;;5075794;28;39380;-87
2021/05/07 07:07:30;;;;;;;3.40;0.97;;;9.60;60.90;;;;;;5077589;28;38782;-88
2021/05/07 07:09:59;;;;;;;1.77;1.60;;;9.80;60.20;;;;;;5095293;28;38031;-88
2021/05/07 07:12:26;;;;;;;1.10;0.80;;;9.80;59.70;;;;;;5077455;28;40786;-88
2021/05/07 07:14:54;;;;;;;1.00;0.70;;;9.70;58.90;;;;;;5068331;28;39121;-89
2021/05/07 07:17:22;;;;;;;1.10;0.87;;;9.70;59.30;;;;;;5094095;28;38788;-88
2021/05/07 07:19:49;;;;;;;1.20;1.00;;;9.70;59.70;;;;;;5066170;28;37219;-87
2021/05/07 07:22:20;;;;;;;1.50;1.20;;;9.70;58.80;;;;;;5056911;28;37331;-89
2021/05/07 07:24:50;;;;;;;1.77;1.20;;;9.60;58.70;;;;;;5072544;28;40352;-90
2021/05/07 07:27:24;;;;;;;1.50;1.20;;;9.50;58.20;;;;;;5076792;28;36993;-90
2021/05/07 07:30:01;;;;;;;1.50;1.10;;;9.40;58.10;;;;;;5063242;28;36375;-90
2021/05/07 07:32:28;;;;;;;1.90;1.00;;;9.30;58.40;;;;;;5065849;28;38532;-87
2021/05/07 07:35:02;;;;;;;1.97;0.80;;;9.30;58.60;;;;;;5070297;28;38780;-88
2021/05/07 07:37:30;;;;;;;1.13;0.80;;;9.30;58.30;;;;;;5049209;28;36553;-91
2021/05/07 07:39:58;;;;;;;1.47;0.97;;;9.20;58.10;;;;;;5058790;28;38228;-89
2021/05/07 07:42:26;;;;;;;1.37;0.63;;;9.10;58.40;;;;;;5071990;28;40808;-89
2021/05/07 07:44:58;;;;;;;1.33;0.80;;;9.10;58.50;;;;;;5064437;28;39416;-90
2021/05/07 07:47:28;;;;;;;0.93;0.70;;;9.00;58.70;;;;;;5061571;28;38966;-88
2021/05/07 07:49:59;;;;;;;0.80;0.60;;;8.90;59.00;;;;;;5070660;28;39670;-89
2021/05/07 07:52:27;;;;;;;1.83;1.40;;;8.90;59.50;;;;;;5061663;28;40097;-91
2021/05/07 07:58:01;;;;;;;1.60;1.50;;;8.80;60.10;;;;;;5074845;28;39220;-89
2021/05/07 08:01:17;;;;;;;1.80;1.60;;;8.80;60.10;;;;;;5075099;28;37684;-89
2021/05/07 08:04:35;;;;;;;5.47;2.00;;;8.80;60.30;;;;;;5078228;28;40528;-86
2021/05/07 08:14:59;;;;;;;4.20;2.83;;;8.70;60.70;;;;;;5029230;28;37862;-87
2021/05/07 08:17:27;;;;;;;3.13;1.63;;;8.90;60.80;;;;;;5077859;28;39537;-86
2021/05/07 08:19:55;;;;;;;3.23;2.00;;;8.90;60.10;;;;;;5074272;28;38646;-84
2021/05/07 08:22:25;;;;;;;4.90;2.57;;;8.90;60.10;;;;;;5058522;28;36394;-86
2021/05/07 08:24:53;;;;;;;3.60;2.70;;;9.00;60.10;;;;;;5063397;28;36584;-87
2021/05/07 08:27:20;;;;;;;6.83;3.83;;;9.00;59.70;;;;;;5074676;28;40013;-85
2021/05/07 08:29:50;;;;;;;4.50;3.20;;;9.00;59.90;;;;;;5067306;28;37701;-85
2021/05/07 08:32:17;;;;;;;4.00;3.57;;;9.10;60.00;;;;;;5106422;22;36339;-87
2021/05/07 08:34:45;;;;;;;5.00;4.00;;;9.10;59.60;;;;;;5128966;27;35815;-85
2021/05/07 08:37:20;;;;;;;6.93;5.60;;;9.20;59.90;;;;;;5153136;27;39787;-87
2021/05/07 08:39:47;;;;;;;5.20;4.70;;;9.30;59.40;;;;;;5136827;27;39353;-80
2021/05/07 08:42:18;;;;;;;5.70;4.70;;;9.50;58.40;;;;;;5134206;27;37797;-79
2021/05/07 08:44:47;;;;;;;7.43;4.70;;;10.00;58.20;;;;;;5130472;27;37230;-80
2021/05/07 08:47:17;;;;;;;5.60;4.57;;;10.70;57.40;;;;;;5126540;27;39561;-79
2021/05/07 08:49:47;;;;;;;6.97;4.67;;;11.60;53.60;;;;;;5133027;27;38300;-79
2021/05/07 08:52:16;;;;;;;9.00;4.03;;;12.50;51.10;;;;;;5111604;27;36716;-79
2021/05/07 08:54:44;;;;;;;12.30;3.90;;;13.60;49.30;;;;;;5134436;27;37158;-80
2021/05/07 08:57:11;;;;;;;5.23;3.77;;;14.90;46.50;;;;;;5114644;27;38085;-80
2021/05/07 08:59:38;;;;;;;3.90;3.50;;;15.60;44.60;;;;;;5137186;27;39475;-80
2021/05/07 09:02:05;;;;;;;3.67;3.37;;;17.10;43.10;;;;;;5138229;27;37464;-80
2021/05/07 09:04:32;;;;;;;4.83;3.83;;;18.90;39.20;;;;;;5138373;27;37046;-80
2021/05/07 09:06:59;;;;;;;3.73;3.43;;;20.00;35.70;;;;;;5111421;27;38384;-80
2021/05/07 09:09:28;;;;;;;4.93;3.93;;;20.30;35.00;;;;;;5137671;27;39038;-79
2021/05/07 09:11:58;;;;;;;4.17;3.77;;;20.60;33.50;;;;;;5129899;27;37629;-79
2021/05/07 09:14:27;;;;;;;4.37;3.63;;;20.70;33.70;;;;;;5124659;27;37857;-79
2021/05/07 09:17:00;;;;;;;4.47;3.07;;;20.90;34.00;;;;;;5123403;27;39505;-79
2021/05/07 09:19:31;;;;;;;3.17;2.30;;;20.30;34.30;;;;;;5133751;27;38794;-79
2021/05/07 09:22:00;;;;;;;2.50;2.27;;;20.10;33.40;;;;;;5130775;27;38498;-79
2021/05/07 09:24:31;;;;;;;4.37;2.77;;;19.60;34.70;;;;;;5135211;27;36969;-79
2021/05/07 09:27:00;;;;;;;3.10;2.60;;;18.90;34.60;;;;;;5133499;27;39815;-79
2021/05/07 09:29:30;;;;;;;2.47;2.07;;;18.70;36.40;;;;;;5131531;27;39008;-79
2021/05/07 09:32:00;;;;;;;2.83;2.20;;;20.10;35.60;;;;;;5111781;28;36280;-78
2021/05/07 09:34:35;;;;;;;3.50;2.50;;;22.70;33.50;;;;;;5104021;28;39625;-79
2021/05/07 09:37:13;;;;;;;2.90;2.57;;;24.60;29.30;;;;;;5105475;28;40336;-79
2021/05/07 09:39:40;;;;;;;4.10;1.90;;;25.40;28.00;;;;;;5102307;28;38967;-79
2021/05/07 09:42:08;;;;;;;2.23;1.97;;;26.30;27.80;;;;;;5108449;28;37734;-78
2021/05/07 09:44:36;;;;;;;2.47;1.60;;;26.10;26.80;;;;;;5112530;28;37099;-79
2021/05/07 09:47:13;;;;;;;2.60;1.90;;;26.70;25.90;;;;;;5119145;28;40273;-79
2021/05/07 09:49:41;;;;;;;1.90;1.80;;;26.70;26.10;;;;;;5096759;28;38458;-81
2021/05/07 09:52:08;;;;;;;2.07;1.77;;;28.60;25.40;;;;;;5107802;28;38454;-79
2021/05/07 09:54:38;;;;;;;3.50;2.17;;;30.00;24.40;;;;;;5110355;28;37073;-77
2021/05/07 09:57:06;;;;;;;2.80;2.20;;;31.10;22.80;;;;;;5111089;28;39790;-77
2021/05/07 09:59:37;;;;;;;2.50;2.20;;;31.00;21.20;;;;;;5104565;28;39827;-77
2021/05/07 10:02:07;;;;;;;2.47;2.17;;;31.40;20.90;;;;;;5104339;28;37840;-78
2021/05/07 10:04:35;;;;;;;2.23;2.03;;;29.80;21.60;;;;;;5086800;28;35972;-78
2021/05/07 10:07:02;;;;;;;2.60;2.40;;;27.40;22.20;;;;;;5094818;28;38329;-77
2021/05/07 10:09:30;;;;;;;3.10;2.80;;;26.20;24.00;;;;;;5108567;28;39536;-78
2021/05/07 10:12:01;;;;;;;2.70;2.50;;;25.90;24.00;;;;;;5111590;28;38402;-78
2021/05/07 10:14:29;;;;;;;3.07;2.33;;;27.10;23.40;;;;;;5103045;28;36743;-79
2021/05/07 10:17:07;;;;;;;2.43;2.20;;;28.30;22.80;;;;;;5116279;28;40151;-79
2021/05/07 10:19:41;;;;;;;5.83;2.87;;;29.90;21.20;;;;;;5123786;28;39726;-79
2021/05/07 10:22:11;;;;;;;2.57;1.97;;;29.50;19.80;;;;;;5109792;28;38405;-79
2021/05/07 10:24:39;;;;;;;4.13;2.43;;;27.20;20.00;;;;;;5109240;28;37001;-78
2021/05/07 10:27:17;;;;;;;3.50;2.43;;;24.00;19.80;;;;;;5115108;28;39375;-79
2021/05/07 10:29:56;;;;;;;4.10;2.60;;;21.60;21.30;;;;;;5112102;28;40078;-78
2021/05/07 10:32:35;;;;;;;4.60;2.80;;;19.60;22.80;;;;;;5104213;27;36266;-79
2021/05/07 10:35:04;;;;;;;3.97;2.47;;;18.70;24.90;;;;;;5109993;27;35864;-78
2021/05/07 10:37:41;;;;;;;3.67;2.30;;;18.10;25.00;;;;;;5121735;27;39484;-78
2021/05/07 10:40:12;;;;;;;4.17;2.63;;;17.50;25.80;;;;;;5107466;27;37914;-77
2021/05/07 10:42:39;;;;;;;3.77;2.93;;;16.90;26.70;;;;;;5109426;27;36418;-78
2021/05/07 10:45:07;;;;;;;2.60;2.40;;;17.90;26.10;;;;;;5118802;27;35905;-77
2021/05/07 10:47:37;;;;;;;3.73;2.80;;;20.10;24.60;;;;;;5111010;27;38561;-77
2021/05/07 10:50:14;;;;;;;2.77;2.53;;;20.70;21.90;;;;;;5129870;27;39163;-77
2021/05/07 10:52:42;;;;;;;4.23;2.27;;;20.40;21.40;;;;;;5125379;27;39183;-77
2021/05/07 10:55:11;;;;;;;5.13;2.70;;;19.90;22.30;;;;;;5122598;27;37211;-76
2021/05/07 10:57:39;;;;;;;5.00;2.17;;;19.40;21.40;;;;;;5122821;27;39704;-79
2021/05/07 11:00:09;;;;;;;3.03;2.40;;;18.80;22.10;;;;;;5119205;27;37307;-78
2021/05/07 11:02:47;;;;;;;5.20;2.10;;;18.70;22.90;;;;;;5105328;28;36223;-78
2021/05/07 11:05:35;;;;;;;5.70;2.37;;;18.80;22.80;;;;;;5123482;27;37685;-78
2021/05/07 11:08:03;;;;;;;3.43;1.67;;;19.10;23.30;;;;;;5113557;27;38066;-77
2021/05/07 11:10:30;;;;;;;2.23;1.83;;;20.00;23.10;;;;;;5131939;27;38889;-78
2021/05/07 11:12:58;;;;;;;2.23;1.90;;;20.90;22.10;;;;;;5114568;27;36973;-79
2021/05/07 11:15:25;;;;;;;2.90;2.37;;;21.00;21.60;;;;;;5134549;27;37220;-78
2021/05/07 11:18:03;;;;;;;2.90;2.37;;;20.90;22.20;;;;;;5115513;27;38578;-77
2021/05/07 11:20:33;;;;;;;2.33;1.97;;;20.70;21.70;;;;;;5128669;27;39052;-78
2021/05/07 11:23:02;;;;;;;2.97;2.13;;;20.20;20.30;;;;;;5131004;27;37177;-78
2021/05/07 11:25:31;;;;;;;3.00;2.03;;;19.20;20.20;;;;;;5133147;27;38016;-77
2021/05/07 11:28:11;;;;;;;4.33;1.80;;;18.10;20.70;;;;;;5109486;27;38303;-77
2021/05/07 11:30:49;;;;;;;5.13;2.00;;;17.50;21.70;;;;;;5133858;27;39871;-78
2021/05/07 11:33:18;;;;;;;2.90;2.37;;;17.30;22.00;;;;;;5127656;27;38427;-77
2021/05/07 11:36:01;;;;;;;2.00;1.80;;;17.10;22.00;;;;;;5132940;27;37130;-77
2021/05/07 11:38:29;;;;;;;3.90;2.00;;;16.80;22.50;;;;;;5124801;27;40308;-77
2021/05/07 11:40:56;;;;;;;3.17;2.40;;;16.60;23.20;;;;;;5105311;27;37991;-78
2021/05/07 11:43:27;;;;;;;2.07;1.83;;;16.40;22.80;;;;;;5134813;27;38048;-78
2021/05/07 11:46:04;;;;;;;3.00;2.50;;;16.40;23.00;;;;;;5128478;27;37773;-77
2021/05/07 11:48:33;;;;;;;3.47;2.17;;;16.50;23.10;;;;;;5120013;27;39956;-79
2021/05/07 11:51:04;;;;;;;5.37;1.90;;;16.70;22.60;;;;;;5118545;27;37815;-77
2021/05/07 11:53:33;;;;;;;1.90;1.70;;;16.80;23.10;;;;;;5137737;27;38327;-79
2021/05/07 11:56:01;;;;;;;3.00;2.20;;;16.40;21.60;;;;;;5127351;27;37153;-78
2021/05/07 11:58:34;;;;;;;2.53;2.00;;;16.30;23.60;;;;;;5133837;27;40345;-77
2021/05/07 12:01:01;;;;;;;2.43;2.10;;;16.00;23.30;;;;;;5129952;27;39700;-79
2021/05/07 12:03:41;;;;;;;6.93;2.80;;;15.60;23.80;;;;;;5134544;27;38430;-79
2021/05/07 12:06:19;;;;;;;3.60;2.00;;;15.40;24.60;;;;;;5125845;27;37399;-78
2021/05/07 12:08:48;;;;;;;2.87;1.60;;;15.30;23.70;;;;;;5115562;27;37993;-78
2021/05/07 12:11:16;;;;;;;2.83;1.97;;;15.40;25.80;;;;;;5115171;27;38852;-78
2021/05/07 12:13:44;;;;;;;3.30;2.10;;;15.70;24.80;;;;;;5133269;27;37213;-78
2021/05/07 12:16:12;;;;;;;2.70;2.10;;;15.80;24.10;;;;;;5109724;27;35670;-77
2021/05/07 12:18:49;;;;;;;7.03;2.70;;;15.70;24.30;;;;;;5134630;27;39159;-78
2021/05/07 12:21:16;;;;;;;2.70;2.00;;;15.70;24.00;;;;;;5115072;27;38059;-78
2021/05/07 12:23:46;;;;;;;2.50;1.90;;;15.50;23.20;;;;;;5134701;27;38485;-80
2021/05/07 12:26:14;;;;;;;2.70;2.13;;;15.40;23.30;;;;;;5112101;27;38298;-77
2021/05/07 12:28:52;;;;;;;3.77;1.97;;;15.50;24.10;;;;;;5123654;27;39611;-77
2021/05/07 12:31:27;;;;;;;2.37;2.00;;;15.90;23.20;;;;;;5127695;27;39052;-77
2021/05/07 12:33:56;;;;;;;12.20;9.73;;;16.30;22.40;;;;;;5117982;27;37418;-76
2021/05/07 12:36:25;;;;;;;1.80;1.70;;;16.50;22.40;;;;;;5125290;27;37177;-78
2021/05/07 12:38:57;;;;;;;3.40;1.70;;;16.40;20.40;;;;;;5126952;27;39369;-78
2021/05/07 12:41:27;;;;;;;3.80;2.00;;;16.40;21.50;;;;;;5134446;27;39835;-79
2021/05/07 12:43:58;;;;;;;3.50;2.70;;;16.40;21.60;;;;;;5115905;27;35911;-78
2021/05/07 12:46:25;;;;;;;3.47;2.03;;;16.30;21.50;;;;;;5115075;27;36073;-79
2021/05/07 12:48:53;;;;;;;3.77;1.87;;;16.20;21.40;;;;;;5124803;27;39823;-77
2021/05/07 12:51:23;;;;;;;2.27;1.50;;;16.10;22.40;;;;;;5108663;28;38647;-76
2021/05/07 12:53:50;;;;;;;2.53;1.77;;;16.10;21.90;;;;;;5115903;27;38751;-77
2021/05/07 12:56:21;;;;;;;1.90;1.70;;;16.20;22.10;;;;;;5104714;27;36148;-77
2021/05/07 12:58:48;;;;;;;3.60;1.63;;;16.20;21.50;;;;;;5111058;27;38534;-77
2021/05/07 13:01:17;;;;;;;2.17;1.97;;;16.30;21.80;;;;;;5132209;27;38771;-78
2021/05/07 13:03:47;;;;;;;2.43;1.90;;;16.30;22.20;;;;;;5111012;27;37134;-77
2021/05/07 13:06:14;;;;;;;3.33;2.13;;;16.20;21.50;;;;;;5098757;28;36117;-77
2021/05/07 13:08:42;;;;;;;3.00;1.47;;;16.00;21.60;;;;;;5125909;27;40272;-78
2021/05/07 13:11:12;;;;;;;1.60;1.50;;;15.70;21.70;;;;;;5125602;27;38867;-77
2021/05/07 13:13:40;;;;;;;3.97;1.57;;;15.20;22.70;;;;;;5106048;27;37433;-77
2021/05/07 13:16:08;;;;;;;4.23;1.70;;;14.90;23.50;;;;;;5124544;27;37338;-77
2021/05/07 13:18:35;;;;;;;3.07;1.90;;;15.20;24.10;;;;;;5110473;27;38024;-78
2021/05/07 13:21:02;;;;;;;3.80;2.17;;;15.80;23.30;;;;;;5115031;27;40525;-77